sensor_id;sensor_type;location;lat;lon;timestamp;P1;durP1;ratioP1;P2;durP2;ratioP2
26702;SDS011;14316;51.074;3.704;2023-10-19T16:20:07;4.38;;;2.20;;
26702;SDS011;14316;51.074;3.704;2023-10-19T16:22:34;3.88;;;2.35;;
26702;SDS011;14316;51.074;3.704;2023-10-19T16:25:00;4.10;;;2.38;;
26702;SDS011;14316;51.074;3.704;2023-10-19T16:27:26;5.63;;;2.92;;
26702;SDS011;14316;51.074;3.704;2023-10-19T16:29:53;6.60;;;3.83;;
26702;SDS011;14316;51.074;3.704;2023-10-19T16:32:19;5.00;;;2.70;;
26702;SDS011;14316;51.074;3.704;2023-10-19T16:34:46;3.35;;;2.17;;
26702;SDS011;14316;51.074;3.704;2023-10-19T16:37:12;4.18;;;2.67;;
26702;SDS011;14316;51.074;3.704;2023-10-19T16:39:38;6.78;;;3.42;;
26702;SDS011;14316;51.074;3.704;2023-10-19T16:42:04;9.15;;;3.50;;
26702;SDS011;14316;51.074;3.704;2023-10-19T16:44:29;8.55;;;4.35;;
26702;SDS011;14316;51.074;3.704;2023-10-19T16:46:55;5.88;;;3.80;;
26702;SDS011;14316;51.074;3.704;2023-10-19T16:49:24;6.05;;;3.92;;
26702;SDS011;14316;51.074;3.704;2023-10-19T16:51:49;8.48;;;5.15;;
26702;SDS011;14316;51.074;3.704;2023-10-19T16:54:15;6.47;;;5.10;;
26702;SDS011;14316;51.074;3.704;2023-10-19T16:56:41;7.53;;;5.35;;
26702;SDS011;14316;51.074;3.704;2023-10-19T16:59:16;6.50;;;4.68;;
26702;SDS011;14316;51.074;3.704;2023-10-19T17:01:42;6.22;;;5.13;;
26702;SDS011;14316;51.074;3.704;2023-10-19T17:04:08;11.82;;;5.32;;
26702;SDS011;14316;51.074;3.704;2023-10-19T17:06:35;9.35;;;5.45;;
26702;SDS011;14316;51.074;3.704;2023-10-19T17:09:08;10.40;;;5.60;;
26702;SDS011;14316;51.074;3.704;2023-10-19T17:11:38;9.27;;;5.22;;
26702;SDS011;14316;51.074;3.704;2023-10-19T17:14:04;6.95;;;5.40;;
26702;SDS011;14316;51.074;3.704;2023-10-19T17:16:32;4.28;;;3.65;;
26702;SDS011;14316;51.074;3.704;2023-10-19T19:43:42;6.50;;;5.13;;
26702;SDS011;14316;51.074;3.704;2023-10-19T19:46:08;5.57;;;4.97;;
26702;SDS011;14316;51.074;3.704;2023-10-19T19:48:34;7.50;;;5.20;;
26702;SDS011;14316;51.074;3.704;2023-10-19T19:51:00;7.07;;;6.38;;
26702;SDS011;14316;51.074;3.704;2023-10-19T19:53:28;7.03;;;5.50;;
26702;SDS011;14316;51.074;3.704;2023-10-19T19:55:57;7.82;;;5.70;;
26702;SDS011;14316;51.074;3.704;2023-10-19T19:58:25;6.82;;;5.45;;
26702;SDS011;14316;51.074;3.704;2023-10-19T20:00:51;6.03;;;5.40;;
26702;SDS011;14316;51.074;3.704;2023-10-19T20:03:17;5.88;;;5.30;;
26702;SDS011;14316;51.074;3.704;2023-10-19T20:05:42;8.90;;;5.40;;
26702;SDS011;14316;51.074;3.704;2023-10-19T20:08:08;6.78;;;6.03;;
26702;SDS011;14316;51.074;3.704;2023-10-19T20:10:43;7.35;;;5.55;;
26702;SDS011;14316;51.074;3.704;2023-10-19T20:13:10;5.57;;;5.07;;
26702;SDS011;14316;51.074;3.704;2023-10-19T20:15:41;6.20;;;5.32;;
26702;SDS011;14316;51.074;3.704;2023-10-19T20:18:08;7.35;;;5.90;;
26702;SDS011;14316;51.074;3.704;2023-10-19T20:20:36;6.85;;;5.53;;
26702;SDS011;14316;51.074;3.704;2023-10-19T20:23:02;8.10;;;5.60;;
26702;SDS011;14316;51.074;3.704;2023-10-19T20:25:29;7.07;;;5.90;;
26702;SDS011;14316;51.074;3.704;2023-10-19T20:27:56;7.22;;;6.22;;
26702;SDS011;14316;51.074;3.704;2023-10-19T20:30:24;9.43;;;6.00;;
26702;SDS011;14316;51.074;3.704;2023-10-19T20:32:50;6.97;;;6.22;;
26702;SDS011;14316;51.074;3.704;2023-10-19T20:35:20;8.20;;;5.90;;
26702;SDS011;14316;51.074;3.704;2023-10-19T20:37:47;8.70;;;6.43;;
26702;SDS011;14316;51.074;3.704;2023-10-19T20:40:13;6.60;;;5.90;;
26702;SDS011;14316;51.074;3.704;2023-10-19T20:42:50;8.38;;;6.25;;
26702;SDS011;14316;51.074;3.704;2023-10-19T20:45:18;7.68;;;6.10;;
26702;SDS011;14316;51.074;3.704;2023-10-19T20:47:49;9.00;;;6.30;;
26702;SDS011;14316;51.074;3.704;2023-10-19T20:50:17;7.82;;;6.60;;
26702;SDS011;14316;51.074;3.704;2023-10-19T20:52:44;7.50;;;6.40;;
26702;SDS011;14316;51.074;3.704;2023-10-19T20:55:10;7.88;;;6.60;;
26702;SDS011;14316;51.074;3.704;2023-10-19T20:57:38;8.00;;;6.60;;
26702;SDS011;14316;51.074;3.704;2023-10-19T21:00:05;9.40;;;6.78;;
26702;SDS011;14316;51.074;3.704;2023-10-19T21:02:33;7.55;;;6.70;;
26702;SDS011;14316;51.074;3.704;2023-10-19T21:05:00;8.57;;;6.32;;
26702;SDS011;14316;51.074;3.704;2023-10-19T21:07:27;6.90;;;6.15;;
26702;SDS011;14316;51.074;3.704;2023-10-19T21:09:53;6.60;;;5.95;;
26702;SDS011;14316;51.074;3.704;2023-10-19T21:12:19;9.10;;;6.75;;
26702;SDS011;14316;51.074;3.704;2023-10-19T21:14:44;7.57;;;6.70;;
26702;SDS011;14316;51.074;3.704;2023-10-19T21:17:11;9.35;;;6.85;;
26702;SDS011;14316;51.074;3.704;2023-10-19T21:19:37;10.25;;;7.22;;
26702;SDS011;14316;51.074;3.704;2023-10-19T21:22:04;9.25;;;7.18;;
26702;SDS011;14316;51.074;3.704;2023-10-19T21:24:30;8.23;;;7.47;;
26702;SDS011;14316;51.074;3.704;2023-10-19T21:26:55;8.60;;;7.68;;
26702;SDS011;14316;51.074;3.704;2023-10-19T21:29:24;9.63;;;7.78;;
26702;SDS011;14316;51.074;3.704;2023-10-19T21:31:50;10.10;;;8.85;;
26702;SDS011;14316;51.074;3.704;2023-10-19T21:34:17;10.30;;;9.20;;
26702;SDS011;14316;51.074;3.704;2023-10-19T21:36:43;9.13;;;8.23;;
26702;SDS011;14316;51.074;3.704;2023-10-19T21:39:08;9.88;;;7.97;;
26702;SDS011;14316;51.074;3.704;2023-10-19T21:41:36;8.50;;;7.63;;
26702;SDS011;14316;51.074;3.704;2023-10-19T21:44:03;8.40;;;6.60;;
26702;SDS011;14316;51.074;3.704;2023-10-19T21:46:30;8.80;;;8.00;;
26702;SDS011;14316;51.074;3.704;2023-10-19T21:48:56;9.70;;;7.40;;
26702;SDS011;14316;51.074;3.704;2023-10-19T21:51:22;8.27;;;7.47;;
26702;SDS011;14316;51.074;3.704;2023-10-19T21:53:49;7.97;;;7.20;;
26702;SDS011;14316;51.074;3.704;2023-10-19T21:56:15;7.68;;;7.05;;
26702;SDS011;14316;51.074;3.704;2023-10-19T21:58:41;8.95;;;8.05;;
26702;SDS011;14316;51.074;3.704;2023-10-19T22:01:07;8.80;;;7.68;;
26702;SDS011;14316;51.074;3.704;2023-10-19T22:03:35;10.60;;;7.82;;
26702;SDS011;14316;51.074;3.704;2023-10-19T22:06:05;7.95;;;7.15;;
26702;SDS011;14316;51.074;3.704;2023-10-19T22:08:31;10.45;;;8.40;;
26702;SDS011;14316;51.074;3.704;2023-10-19T22:10:57;9.35;;;7.50;;
26702;SDS011;14316;51.074;3.704;2023-10-19T22:13:22;10.10;;;8.55;;
26702;SDS011;14316;51.074;3.704;2023-10-19T22:15:48;9.63;;;8.60;;
26702;SDS011;14316;51.074;3.704;2023-10-19T22:18:14;8.27;;;7.47;;
26702;SDS011;14316;51.074;3.704;2023-10-19T22:20:41;11.35;;;7.45;;
26702;SDS011;14316;51.074;3.704;2023-10-19T22:23:07;12.70;;;7.50;;
26702;SDS011;14316;51.074;3.704;2023-10-19T22:25:34;8.05;;;7.13;;
26702;SDS011;14316;51.074;3.704;2023-10-19T22:28:00;7.90;;;7.10;;
26702;SDS011;14316;51.074;3.704;2023-10-19T22:30:28;7.82;;;7.13;;
26702;SDS011;14316;51.074;3.704;2023-10-19T22:32:55;8.38;;;7.10;;
26702;SDS011;14316;51.074;3.704;2023-10-19T22:35:21;8.05;;;6.90;;
26702;SDS011;14316;51.074;3.704;2023-10-19T22:37:47;7.43;;;6.72;;
26702;SDS011;14316;51.074;3.704;2023-10-19T22:40:15;8.68;;;7.70;;
26702;SDS011;14316;51.074;3.704;2023-10-19T22:42:41;9.63;;;6.80;;
26702;SDS011;14316;51.074;3.704;2023-10-19T22:45:07;9.93;;;7.68;;
26702;SDS011;14316;51.074;3.704;2023-10-19T22:47:38;8.18;;;7.00;;
26702;SDS011;14316;51.074;3.704;2023-10-19T22:50:05;8.45;;;6.72;;
26702;SDS011;14316;51.074;3.704;2023-10-19T22:52:34;7.45;;;5.97;;
26702;SDS011;14316;51.074;3.704;2023-10-19T22:55:01;8.43;;;6.53;;
26702;SDS011;14316;51.074;3.704;2023-10-19T22:57:31;6.97;;;6.38;;
26702;SDS011;14316;51.074;3.704;2023-10-19T22:59:57;7.05;;;6.18;;
26702;SDS011;14316;51.074;3.704;2023-10-19T23:02:23;6.85;;;6.20;;
26702;SDS011;14316;51.074;3.704;2023-10-19T23:04:51;6.28;;;5.70;;
26702;SDS011;14316;51.074;3.704;2023-10-19T23:07:20;6.10;;;5.50;;
26702;SDS011;14316;51.074;3.704;2023-10-19T23:09:46;6.20;;;5.57;;
26702;SDS011;14316;51.074;3.704;2023-10-19T23:12:12;9.98;;;6.03;;
26702;SDS011;14316;51.074;3.704;2023-10-19T23:14:43;7.22;;;5.53;;
26702;SDS011;14316;51.074;3.704;2023-10-19T23:17:11;7.00;;;5.72;;
26702;SDS011;14316;51.074;3.704;2023-10-19T23:19:40;7.72;;;6.03;;
26702;SDS011;14316;51.074;3.704;2023-10-19T23:22:10;6.95;;;6.05;;
26702;SDS011;14316;51.074;3.704;2023-10-19T23:24:39;6.28;;;5.53;;
26702;SDS011;14316;51.074;3.704;2023-10-19T23:27:06;7.32;;;5.22;;
26702;SDS011;14316;51.074;3.704;2023-10-19T23:29:35;5.82;;;5.05;;
26702;SDS011;14316;51.074;3.704;2023-10-19T23:32:13;8.57;;;5.63;;
26702;SDS011;14316;51.074;3.704;2023-10-19T23:34:42;6.95;;;5.65;;
26702;SDS011;14316;51.074;3.704;2023-10-19T23:37:11;7.10;;;5.30;;
26702;SDS011;14316;51.074;3.704;2023-10-19T23:39:39;5.47;;;4.57;;
26702;SDS011;14316;51.074;3.704;2023-10-19T23:42:10;6.80;;;5.15;;
26702;SDS011;14316;51.074;3.704;2023-10-19T23:44:40;6.82;;;4.88;;
26702;SDS011;14316;51.074;3.704;2023-10-19T23:47:06;6.13;;;5.00;;
26702;SDS011;14316;51.074;3.704;2023-10-19T23:49:32;5.40;;;4.88;;
26702;SDS011;14316;51.074;3.704;2023-10-19T23:51:58;6.25;;;4.40;;
26702;SDS011;14316;51.074;3.704;2023-10-19T23:54:24;5.68;;;4.55;;
26702;SDS011;14316;51.074;3.704;2023-10-19T23:56:53;6.30;;;4.75;;
26702;SDS011;14316;51.074;3.704;2023-10-19T23:59:19;4.55;;;4.15;;
